Terminal Aerodrome Forecast
Issued by NWS

Home | Current Version | Previous Version | Text Only | Print | Product List | Glossary On
Versions: 1 2 3 4 5 6 7 8 9 10 11 12 13 14 15 16 17 18
432
FTUS43 KMQT 260521
TAFSAW
TAF
KSAW 260521Z 2606/2706 21012G19KT P6SM BKN070
     FM260700 20012G19KT P6SM VCSH OVC035
     FM260900 21009KT 6SM -SHRA VCTS OVC025CB
     FM261200 22008KT 5SM -SHRA BR OVC015
     FM261500 26008KT P6SM VCSH BKN025
     FM261700 26006KT P6SM BKN025
     FM261900 28005KT P6SM BKN035
     FM262000 32004KT P6SM BKN060
     FM262200 35003KT P6SM SCT070=

USA.gov is the U.S. government's official web portal to all federal, state and local government web resources and services.